Time;durP1;ratioP1;P1;durP2;ratioP2;P2;SDS_P1;SDS_P2;PMS_P1;PMS_P2;Temp;Humidity;BMP_temperature;BMP_pressure;BME280_temperature;BME280_humidity;BME280_pressure;Samples;Min_cycle;Max_cycle;Signal;HPM_P1;HPM_P2
2023/04/13 00:00:29;;;;;;;18.02;8.63;;;;;;;;;;2034533;29;20437;-70
2023/04/13 00:01:50;;;;;;;9.68;7.15;;;;;;;;;;2037452;29;20095;-70
2023/04/13 00:03:11;;;;;;;9.65;6.75;;;;;;;;;;2036146;29;20094;-71
2023/04/13 00:04:32;;;;;;;8.90;6.53;;;;;;;;;;2040487;29;20106;-70
2023/04/13 00:05:53;;;;;;;11.43;7.40;;;;;;;;;;2034989;29;20111;-71
2023/04/13 00:07:15;;;;;;;11.55;7.70;;;;;;;;;;2035648;29;20032;-70
2023/04/13 00:08:36;;;;;;;17.52;8.65;;;;;;;;;;2037319;29;20019;-70
2023/04/13 00:10:01;;;;;;;13.18;8.07;;;;;;;;;;2043233;29;20031;-70
2023/04/13 00:11:22;;;;;;;8.50;6.90;;;;;;;;;;2037762;29;20091;-70
2023/04/13 00:12:46;;;;;;;12.90;8.05;;;;;;;;;;2038658;28;20083;-70
2023/04/13 00:14:07;;;;;;;9.18;7.45;;;;;;;;;;2043118;29;20101;-70
2023/04/13 00:15:28;;;;;;;14.18;8.43;;;;;;;;;;2038278;29;20036;-70
2023/04/13 00:16:50;;;;;;;11.82;7.72;;;;;;;;;;2036619;29;20043;-70
2023/04/13 00:18:11;;;;;;;;;;;;;;;;;;2036964;29;20063;-70
2023/04/13 00:19:35;;;;;;;10.07;7.13;;;;;;;;;;2041401;29;19973;-70
2023/04/13 00:20:58;;;;;;;13.18;7.85;;;;;;;;;;2039368;29;20035;-70
2023/04/13 00:22:19;;;;;;;13.18;7.97;;;;;;;;;;2035159;28;20025;-70
2023/04/13 00:23:40;;;;;;;8.52;6.95;;;;;;;;;;2032834;29;20480;-70
2023/04/13 00:25:01;;;;;;;10.90;7.45;;;;;;;;;;2036296;29;20066;-70
2023/04/13 00:26:24;;;;;;;12.32;7.93;;;;;;;;;;2037774;29;20038;-70
2023/04/13 00:27:45;;;;;;;9.57;7.53;;;;;;;;;;2032891;29;20409;-70
2023/04/13 00:29:06;;;;;;;8.95;7.47;;;;;;;;;;2036776;29;20024;-70
2023/04/13 00:30:27;;;;;;;11.07;7.13;;;;;;;;;;2039712;29;20027;-70
2023/04/13 00:31:48;;;;;;;13.18;7.72;;;;;;;;;;2037062;29;20392;-69
2023/04/13 00:33:09;;;;;;;12.27;7.25;;;;;;;;;;2035811;28;20059;-70
2023/04/13 00:34:30;;;;;;;8.90;6.70;;;;;;;;;;2033652;29;20568;-70
2023/04/13 00:35:51;;;;;;;8.65;7.07;;;;;;;;;;2039122;29;20036;-70
2023/04/13 00:37:13;;;;;;;14.15;8.65;;;;;;;;;;2041450;29;20036;-70
2023/04/13 00:38:34;;;;;;;15.68;8.48;;;;;;;;;;2033618;29;20528;-70
2023/04/13 00:39:55;;;;;;;10.57;7.78;;;;;;;;;;2040040;29;20043;-70
2023/04/13 00:41:16;;;;;;;7.45;6.75;;;;;;;;;;2039879;29;20039;-70
2023/04/13 00:42:37;;;;;;;11.13;7.35;;;;;;;;;;2034465;28;20043;-70
2023/04/13 00:43:58;;;;;;;12.57;7.35;;;;;;;;;;2039928;29;20040;-70
2023/04/13 00:45:19;;;;;;;11.48;7.82;;;;;;;;;;2036277;29;20391;-70
2023/04/13 00:46:41;;;;;;;12.85;7.53;;;;;;;;;;2038352;29;20043;-70
2023/04/13 00:48:03;;;;;;;9.63;6.95;;;;;;;;;;2038274;29;20044;-70
2023/04/13 00:49:24;;;;;;;10.90;7.40;;;;;;;;;;2038576;29;20087;-71
2023/04/13 00:50:45;;;;;;;10.27;7.40;;;;;;;;;;2039153;28;20027;-70
2023/04/13 00:52:09;;;;;;;7.28;6.25;;;;;;;;;;2039542;29;20032;-70
2023/04/13 00:53:30;;;;;;;11.85;7.65;;;;;;;;;;2038136;29;20146;-70
2023/04/13 00:54:55;;;;;;;13.77;8.27;;;;;;;;;;2034640;29;20032;-70
2023/04/13 00:56:15;;;;;;;14.25;7.60;;;;;;;;;;2033796;29;20472;-70
2023/04/13 00:57:39;;;;;;;12.00;8.25;;;;;;;;;;2033526;29;20060;-70
2023/04/13 00:59:00;;;;;;;11.18;7.90;;;;;;;;;;2036546;29;20445;-70
2023/04/13 01:00:23;;;;;;;14.30;8.18;;;;;;;;;;2036178;29;20139;-72
2023/04/13 01:01:55;;;;;;;12.45;7.38;;;;;;;;;;2037212;29;20493;-73
2023/04/13 01:03:23;;;;;;;41.38;16.70;;;;;;;;;;2049312;23;20368;-76
2023/04/13 01:04:56;;;;;;;9.65;7.50;;;;;;;;;;2051871;28;20051;-77
2023/04/13 01:06:23;;;;;;;17.95;8.05;;;;;;;;;;2054240;28;20493;-78
2023/04/13 01:07:49;;;;;;;7.57;6.75;;;;;;;;;;2054573;28;20023;-78
2023/04/13 01:09:17;;;;;;;16.00;8.30;;;;;;;;;;2057042;28;20034;-78
2023/04/13 01:10:51;;;;;;;13.98;7.13;;;;;;;;;;2057802;28;20035;-77
2023/04/13 01:12:25;;;;;;;17.48;7.05;;;;;;;;;;2051508;28;20031;-76
2023/04/13 01:14:01;;;;;;;6.70;6.07;;;;;;;;;;2052713;28;20054;-76
2023/04/13 01:15:26;;;;;;;15.90;8.10;;;;;;;;;;2050874;28;20042;-77
2023/04/13 01:16:56;;;;;;;9.30;6.20;;;;;;;;;;2051083;28;20027;-77
2023/04/13 01:18:17;;;;;;;16.95;8.32;;;;;;;;;;2049850;28;20556;-76
2023/04/13 01:19:44;;;;;;;15.10;7.50;;;;;;;;;;2048294;28;20510;-76
2023/04/13 01:21:07;;;;;;;7.80;6.40;;;;;;;;;;2059576;28;20409;-76
2023/04/13 01:22:32;;;;;;;14.10;7.00;;;;;;;;;;2051277;28;20027;-77
2023/04/13 01:24:02;;;;;;;12.88;7.07;;;;;;;;;;2049617;28;20442;-76
2023/04/13 01:25:35;;;;;;;17.10;7.55;;;;;;;;;;2051725;28;20031;-75
2023/04/13 01:27:05;;;;;;;8.27;6.25;;;;;;;;;;2051696;28;20065;-76
2023/04/13 01:28:29;;;;;;;15.35;7.60;;;;;;;;;;2053624;28;20460;-77
2023/04/13 01:29:50;;;;;;;11.60;6.57;;;;;;;;;;2054582;28;20066;-77
2023/04/13 01:31:12;;;;;;;8.35;5.75;;;;;;;;;;2052680;28;20039;-77
2023/04/13 01:32:34;;;;;;;8.82;6.47;;;;;;;;;;2049999;28;20030;-77
2023/04/13 01:33:57;;;;;;;13.45;7.43;;;;;;;;;;2048480;28;20106;-77
2023/04/13 01:35:21;;;;;;;13.25;7.40;;;;;;;;;;2046682;28;20101;-78
2023/04/13 01:36:42;;;;;;;11.20;5.88;;;;;;;;;;2054501;28;20707;-76
2023/04/13 01:38:05;;;;;;;15.48;7.07;;;;;;;;;;2045242;28;20039;-76
2023/04/13 01:39:30;;;;;;;13.38;6.22;;;;;;;;;;2046573;28;20103;-76
2023/04/13 01:40:51;;;;;;;11.98;6.68;;;;;;;;;;2057788;28;20429;-77
2023/04/13 01:42:13;;;;;;;10.10;7.47;;;;;;;;;;2053260;28;20082;-76
2023/04/13 01:43:34;;;;;;;16.40;7.05;;;;;;;;;;2045244;28;20094;-77
2023/04/13 01:44:55;;;;;;;20.10;7.22;;;;;;;;;;2049496;28;20081;-77
2023/04/13 01:46:17;;;;;;;12.77;6.60;;;;;;;;;;2054566;28;20026;-77
2023/04/13 01:47:40;;;;;;;7.32;5.93;;;;;;;;;;2050017;28;20856;-77
2023/04/13 01:49:02;;;;;;;16.55;7.50;;;;;;;;;;2046960;28;20070;-77
2023/04/13 01:50:25;;;;;;;13.57;6.60;;;;;;;;;;2052930;28;20443;-78
2023/04/13 01:51:48;;;;;;;10.45;6.88;;;;;;;;;;2050321;28;20551;-78
2023/04/13 01:53:15;;;;;;;14.55;7.18;;;;;;;;;;2048473;28;20035;-78
2023/04/13 01:54:39;;;;;;;15.90;7.40;;;;;;;;;;2049200;28;20395;-77
2023/04/13 01:56:06;;;;;;;15.32;7.43;;;;;;;;;;2054783;28;20137;-79
2023/04/13 01:57:29;;;;;;;10.75;7.28;;;;;;;;;;2050847;28;20030;-78
2023/04/13 01:58:52;;;;;;;13.93;7.03;;;;;;;;;;2047251;28;20391;-79
2023/04/13 02:00:15;;;;;;;14.63;7.60;;;;;;;;;;2048706;28;20082;-79
2023/04/13 02:01:44;;;;;;;14.27;7.15;;;;;;;;;;2052009;28;20031;-78
2023/04/13 02:03:10;;;;;;;41.28;13.05;;;;;;;;;;2041520;28;20027;-78
2023/04/13 02:04:32;;;;;;;18.77;8.00;;;;;;;;;;2047002;28;20027;-78
2023/04/13 02:06:06;;;;;;;13.20;7.57;;;;;;;;;;2051057;28;21342;-79
2023/04/13 02:07:35;;;;;;;17.40;7.38;;;;;;;;;;2049395;28;20035;-78
2023/04/13 02:09:10;;;;;;;;;;;;;;;;;;;;;
2023/04/13 02:10:36;;;;;;;21.42;8.85;;;;;;;;;;2048953;28;20109;-77
2023/04/13 02:11:59;;;;;;;16.88;7.82;;;;;;;;;;2053040;28;20099;-78
2023/04/13 02:13:20;;;;;;;15.18;6.78;;;;;;;;;;2035277;28;20043;-78
2023/04/13 02:14:41;;;;;;;19.70;8.32;;;;;;;;;;2045903;28;21398;-77
2023/04/13 02:16:09;;;;;;;18.65;7.70;;;;;;;;;;2047796;28;20086;-78
2023/04/13 02:19:16;;;;;;;12.05;7.45;;;;;;;;;;2049103;28;20039;-78
2023/04/13 02:21:01;;;;;;;9.98;6.22;;;;;;;;;;2053660;28;20035;-78
2023/04/13 02:22:38;;;;;;;11.15;6.22;;;;;;;;;;2056057;28;20471;-79
2023/04/13 02:24:00;;;;;;;13.68;6.82;;;;;;;;;;2043243;28;20085;-77
2023/04/13 02:25:42;;;;;;;15.40;7.25;;;;;;;;;;2057203;28;20524;-78
2023/04/13 02:27:09;;;;;;;8.60;6.30;;;;;;;;;;2055635;28;20035;-77
2023/04/13 02:28:33;;;;;;;9.52;6.30;;;;;;;;;;2048999;28;20051;-78
2023/04/13 02:30:04;;;;;;;13.77;7.65;;;;;;;;;;2049047;28;20035;-78
2023/04/13 02:31:42;;;;;;;13.07;6.93;;;;;;;;;;2045453;28;20102;-79
2023/04/13 02:33:04;;;;;;;16.95;7.85;;;;;;;;;;2051776;28;20686;-77
2023/04/13 02:34:30;;;;;;;11.73;6.72;;;;;;;;;;2049271;28;20038;-77
2023/04/13 02:35:54;;;;;;;9.60;6.95;;;;;;;;;;2049294;28;20364;-77
2023/04/13 02:37:33;;;;;;;10.27;6.57;;;;;;;;;;2049018;28;20090;-76
2023/04/13 02:38:54;;;;;;;10.10;6.82;;;;;;;;;;2051223;28;20030;-77
2023/04/13 02:40:44;;;;;;;15.80;6.78;;;;;;;;;;2051138;28;20499;-78
2023/04/13 02:42:09;;;;;;;10.05;7.45;;;;;;;;;;2047244;28;20047;-77
2023/04/13 02:43:33;;;;;;;37.90;13.27;;;;;;;;;;2044230;28;20026;-77
2023/04/13 02:44:57;;;;;;;11.35;7.22;;;;;;;;;;2047942;28;20087;-78
2023/04/13 02:46:18;;;;;;;13.73;7.70;;;;;;;;;;2044654;28;20034;-77
2023/04/13 02:48:01;;;;;;;18.13;7.75;;;;;;;;;;2043242;28;20075;-77
2023/04/13 02:49:25;;;;;;;18.98;8.27;;;;;;;;;;2050770;28;20035;-78
2023/04/13 02:50:46;;;;;;;16.63;7.82;;;;;;;;;;2051182;28;20034;-77
2023/04/13 02:52:21;;;;;;;13.30;7.30;;;;;;;;;;2046582;28;20082;-77
2023/04/13 02:53:48;;;;;;;24.77;8.55;;;;;;;;;;2048820;28;20433;-78
2023/04/13 02:55:15;;;;;;;16.27;7.05;;;;;;;;;;2051432;28;20035;-78
2023/04/13 02:56:43;;;;;;;9.63;7.30;;;;;;;;;;2049490;28;20094;-77
2023/04/13 02:58:16;;;;;;;13.90;7.32;;;;;;;;;;2054892;28;20031;-80
2023/04/13 02:59:37;;;;;;;9.95;7.03;;;;;;;;;;2052205;28;21052;-78
2023/04/13 03:00:58;;;;;;;13.77;7.32;;;;;;;;;;2047530;28;20039;-78
2023/04/13 03:02:20;;;;;;;20.20;8.93;;;;;;;;;;2048515;28;20045;-77
2023/04/13 03:03:44;;;;;;;12.00;7.78;;;;;;;;;;2047786;28;20048;-77
2023/04/13 03:05:20;;;;;;;12.77;7.57;;;;;;;;;;2056644;28;20054;-78
2023/04/13 03:06:43;;;;;;;23.65;8.48;;;;;;;;;;2063987;28;20461;-77
2023/04/13 03:08:09;;;;;;;;;;;;;;;;;;2050688;28;20028;-77
2023/04/13 03:09:33;;;;;;;16.90;8.73;;;;;;;;;;2051310;28;19918;-76
2023/04/13 03:11:00;;;;;;;10.35;7.43;;;;;;;;;;2051721;28;20114;-76
2023/04/13 03:12:21;;;;;;;18.35;8.38;;;;;;;;;;2047765;28;20031;-76
2023/04/13 03:13:42;;;;;;;24.30;9.77;;;;;;;;;;2050318;28;20050;-77
2023/04/13 03:15:06;;;;;;;17.02;9.30;;;;;;;;;;2048852;28;20028;-76
2023/04/13 03:16:30;;;;;;;19.60;8.95;;;;;;;;;;2048724;28;20580;-76
2023/04/13 03:17:51;;;;;;;18.20;9.48;;;;;;;;;;2048331;28;20114;-76
2023/04/13 03:19:13;;;;;;;16.67;8.70;;;;;;;;;;2048324;28;20035;-76
2023/04/13 03:20:40;;;;;;;18.00;8.97;;;;;;;;;;2049241;28;20434;-76
2023/04/13 03:22:19;;;;;;;12.30;7.63;;;;;;;;;;2054477;28;20445;-76
2023/04/13 03:23:43;;;;;;;42.90;15.02;;;;;;;;;;2058295;28;20073;-76
2023/04/13 03:25:04;;;;;;;14.63;7.28;;;;;;;;;;2050810;28;20043;-76
2023/04/13 03:26:26;;;;;;;9.45;6.85;;;;;;;;;;2055039;28;20026;-76
2023/04/13 03:27:50;;;;;;;9.30;6.55;;;;;;;;;;2047886;28;20059;-77
2023/04/13 03:29:11;;;;;;;10.43;6.15;;;;;;;;;;2054905;28;20078;-76
2023/04/13 03:30:32;;;;;;;15.15;7.53;;;;;;;;;;2048996;28;20031;-76
2023/04/13 03:31:53;;;;;;;8.65;6.68;;;;;;;;;;2053231;28;20043;-76
2023/04/13 03:33:14;;;;;;;13.88;6.95;;;;;;;;;;2050153;28;20035;-76
2023/04/13 03:34:42;;;;;;;8.80;6.80;;;;;;;;;;2050981;28;20043;-76
2023/04/13 03:36:04;;;;;;;13.20;7.20;;;;;;;;;;2049949;28;20063;-76
2023/04/13 03:37:31;;;;;;;13.05;6.47;;;;;;;;;;2051509;28;20031;-76
2023/04/13 03:38:52;;;;;;;13.93;7.32;;;;;;;;;;2050122;28;20087;-76
2023/04/13 03:40:14;;;;;;;18.17;7.95;;;;;;;;;;2046850;28;20390;-76
2023/04/13 03:41:35;;;;;;;13.68;7.57;;;;;;;;;;2052288;28;20426;-76
2023/04/13 03:42:56;;;;;;;11.45;7.35;;;;;;;;;;2049929;28;20086;-77
2023/04/13 03:44:16;;;;;;;13.90;7.97;;;;;;;;;;2037777;28;20485;-77
2023/04/13 03:45:37;;;;;;;15.07;8.38;;;;;;;;;;2056441;28;20039;-77
2023/04/13 03:47:00;;;;;;;15.35;8.38;;;;;;;;;;2050390;28;20035;-76
2023/04/13 03:48:21;;;;;;;12.93;7.60;;;;;;;;;;2056232;28;20039;-77
2023/04/13 03:49:42;;;;;;;16.60;8.25;;;;;;;;;;2046345;28;20094;-77
2023/04/13 03:51:03;;;;;;;15.15;7.53;;;;;;;;;;2052540;28;20048;-77
2023/04/13 03:52:24;;;;;;;17.02;8.20;;;;;;;;;;2046979;28;20083;-77
2023/04/13 03:53:47;;;;;;;34.67;12.85;;;;;;;;;;2045723;28;20074;-76
2023/04/13 03:55:08;;;;;;;14.13;8.27;;;;;;;;;;2047711;28;20038;-77
2023/04/13 03:56:29;;;;;;;14.35;8.45;;;;;;;;;;2055532;28;20027;-77
2023/04/13 03:57:50;;;;;;;14.02;8.05;;;;;;;;;;2055053;28;20030;-77
2023/04/13 03:59:11;;;;;;;15.57;8.52;;;;;;;;;;2057767;28;20489;-76
2023/04/13 04:00:38;;;;;;;11.65;8.35;;;;;;;;;;2051727;28;20042;-77
2023/04/13 04:02:01;;;;;;;12.68;8.57;;;;;;;;;;2053522;28;20529;-77
2023/04/13 04:03:25;;;;;;;18.60;9.95;;;;;;;;;;2047928;28;20043;-76
2023/04/13 04:04:46;;;;;;;11.77;8.90;;;;;;;;;;2046649;28;20101;-76
2023/04/13 04:06:12;;;;;;;20.80;10.43;;;;;;;;;;2050477;28;20060;-76
2023/04/13 04:07:36;;;;;;;14.60;9.48;;;;;;;;;;2052817;28;20023;-76
2023/04/13 04:08:57;;;;;;;16.25;9.15;;;;;;;;;;2052915;28;20486;-76
2023/04/13 04:10:18;;;;;;;18.85;10.40;;;;;;;;;;2053303;28;20039;-77
2023/04/13 04:11:39;;;;;;;13.00;8.85;;;;;;;;;;2051292;28;20027;-75
2023/04/13 04:13:00;;;;;;;15.75;9.13;;;;;;;;;;2059999;28;20026;-76
2023/04/13 04:14:22;;;;;;;20.88;11.15;;;;;;;;;;2048557;28;20043;-76
2023/04/13 04:15:42;;;;;;;18.90;8.93;;;;;;;;;;2050256;28;20085;-75
2023/04/13 04:17:03;;;;;;;14.55;9.25;;;;;;;;;;2048191;28;20085;-76
2023/04/13 04:18:24;;;;;;;13.05;8.82;;;;;;;;;;2051872;28;20058;-77
2023/04/13 04:19:45;;;;;;;15.95;9.38;;;;;;;;;;2052452;28;20482;-77
2023/04/13 04:21:06;;;;;;;18.90;10.25;;;;;;;;;;2052916;28;20049;-75
2023/04/13 04:22:28;;;;;;;13.30;8.07;;;;;;;;;;2053081;28;20090;-76
2023/04/13 04:23:51;;;;;;;17.48;10.55;;;;;;;;;;2052886;28;20027;-76
2023/04/13 04:25:21;;;;;;;;;;;;;;;;;;2052632;28;20038;-76
2023/04/13 04:26:48;;;;;;;13.45;8.73;;;;;;;;;;2051569;28;20281;-75
2023/04/13 04:28:16;;;;;;;16.17;9.50;;;;;;;;;;2055751;28;20424;-76
2023/04/13 04:29:47;;;;;;;18.10;10.88;;;;;;;;;;2050039;28;20027;-75
2023/04/13 04:31:11;;;;;;;14.48;8.95;;;;;;;;;;2054270;28;20042;-76
2023/04/13 04:32:43;;;;;;;;;;;;;;;;;;;;;
2023/04/13 04:34:09;;;;;;;45.63;16.55;;;;;;;;;;2050440;28;20380;-75
2023/04/13 04:35:33;;;;;;;26.70;12.00;;;;;;;;;;2052899;28;20494;-75
2023/04/13 04:36:54;;;;;;;15.68;10.50;;;;;;;;;;2051936;28;20125;-76
2023/04/13 04:38:16;;;;;;;17.33;9.23;;;;;;;;;;2050446;28;20470;-76
2023/04/13 04:39:43;;;;;;;;;;;;;;;;;;2051604;28;20047;-76
2023/04/13 04:41:04;;;;;;;25.02;11.05;;;;;;;;;;2047142;28;21001;-75
2023/04/13 04:42:27;;;;;;;21.35;9.73;;;;;;;;;;2052463;28;20031;-77
2023/04/13 04:43:51;;;;;;;13.00;8.68;;;;;;;;;;2051875;28;20031;-77
2023/04/13 04:45:13;;;;;;;16.60;9.75;;;;;;;;;;2052639;28;20054;-76
2023/04/13 04:46:40;;;;;;;16.33;9.35;;;;;;;;;;2050744;28;20034;-76
2023/04/13 04:48:04;;;;;;;17.95;10.90;;;;;;;;;;2050596;28;20034;-76
2023/04/13 04:49:26;;;;;;;19.27;10.82;;;;;;;;;;2047243;28;20482;-76
2023/04/13 04:50:47;;;;;;;14.93;9.10;;;;;;;;;;2054791;28;20489;-76
2023/04/13 04:52:11;;;;;;;16.00;9.85;;;;;;;;;;2052940;28;20489;-76
2023/04/13 04:53:37;;;;;;;23.25;11.48;;;;;;;;;;2049086;28;20035;-77
2023/04/13 04:54:58;;;;;;;18.20;9.98;;;;;;;;;;2049788;28;20421;-76
2023/04/13 04:56:20;;;;;;;19.95;9.70;;;;;;;;;;2054465;28;20081;-76
2023/04/13 04:57:40;;;;;;;16.67;9.55;;;;;;;;;;2048463;28;20082;-76
2023/04/13 04:59:04;;;;;;;12.60;9.13;;;;;;;;;;2053510;28;20560;-76
2023/04/13 05:00:25;;;;;;;15.73;8.63;;;;;;;;;;2052628;28;20494;-76
2023/04/13 05:01:48;;;;;;;24.50;10.20;;;;;;;;;;2049154;28;20151;-76
2023/04/13 05:03:09;;;;;;;23.63;10.48;;;;;;;;;;2048479;28;20059;-76
2023/04/13 05:04:30;;;;;;;13.77;8.68;;;;;;;;;;2051279;28;20051;-76
2023/04/13 05:05:51;;;;;;;17.38;9.63;;;;;;;;;;2051717;28;20035;-76
2023/04/13 05:07:23;;;;;;;14.52;9.48;;;;;;;;;;2049337;28;20126;-76
2023/04/13 05:08:44;;;;;;;18.42;9.82;;;;;;;;;;2052254;28;20031;-76
2023/04/13 05:10:06;;;;;;;18.85;9.48;;;;;;;;;;2049076;28;20041;-76
2023/04/13 05:11:31;;;;;;;14.25;8.40;;;;;;;;;;2051878;28;20414;-75
2023/04/13 05:12:51;;;;;;;16.35;9.35;;;;;;;;;;2052674;28;20371;-76
2023/04/13 05:14:20;;;;;;;30.80;12.63;;;;;;;;;;2043505;28;20039;-75
2023/04/13 05:15:43;;;;;;;18.50;9.52;;;;;;;;;;2050328;28;20036;-76
2023/04/13 05:17:04;;;;;;;19.98;10.25;;;;;;;;;;2049108;28;20490;-76
2023/04/13 05:18:25;;;;;;;23.38;11.65;;;;;;;;;;2048009;28;20038;-75
2023/04/13 05:20:19;;;;;;;22.60;10.15;;;;;;;;;;2047775;28;20422;-75
2023/04/13 05:21:45;;;;;;;19.05;11.35;;;;;;;;;;2042701;28;20039;-76
2023/04/13 05:23:12;;;;;;;19.45;10.18;;;;;;;;;;2052592;28;20039;-76
2023/04/13 05:24:36;;;;;;;18.50;10.32;;;;;;;;;;2040553;28;20055;-76
2023/04/13 05:26:07;;;;;;;17.25;10.32;;;;;;;;;;2058329;28;20026;-76
2023/04/13 05:27:28;;;;;;;22.23;10.38;;;;;;;;;;2051692;28;20090;-76
2023/04/13 05:28:55;;;;;;;16.75;10.25;;;;;;;;;;2051805;28;21138;-77
2023/04/13 05:30:20;;;;;;;17.45;10.98;;;;;;;;;;2048611;28;21661;-77
2023/04/13 05:31:41;;;;;;;20.23;9.95;;;;;;;;;;2052957;28;20027;-77
2023/04/13 05:33:05;;;;;;;19.33;10.57;;;;;;;;;;2052412;28;20043;-77
2023/04/13 05:36:25;;;;;;;25.50;11.30;;;;;;;;;;2050153;28;20026;-76
2023/04/13 05:37:48;;;;;;;18.23;10.48;;;;;;;;;;2051168;28;20053;-76
2023/04/13 05:39:09;;;;;;;16.75;9.70;;;;;;;;;;2052222;28;20031;-76
2023/04/13 05:40:33;;;;;;;21.63;12.03;;;;;;;;;;2051513;28;20034;-76
2023/04/13 05:41:55;;;;;;;15.20;10.10;;;;;;;;;;2051907;28;20481;-77
2023/04/13 05:43:19;;;;;;;18.98;10.77;;;;;;;;;;2050484;28;20031;-77
2023/04/13 05:44:40;;;;;;;17.08;9.73;;;;;;;;;;2047276;28;20043;-77
2023/04/13 05:46:01;;;;;;;16.35;10.30;;;;;;;;;;2052293;28;20027;-78
2023/04/13 05:47:24;;;;;;;20.50;10.98;;;;;;;;;;2047927;28;20042;-76
2023/04/13 05:48:45;;;;;;;17.60;10.70;;;;;;;;;;2052345;28;20035;-75
2023/04/13 05:50:07;;;;;;;22.05;12.55;;;;;;;;;;2047447;28;20035;-76
2023/04/13 05:51:29;;;;;;;16.52;10.50;;;;;;;;;;2053346;28;20038;-76
2023/04/13 05:52:50;;;;;;;16.85;11.73;;;;;;;;;;2050438;28;20138;-76
2023/04/13 05:54:12;;;;;;;14.43;10.10;;;;;;;;;;2047562;28;20101;-77
2023/04/13 05:55:36;;;;;;;23.95;11.38;;;;;;;;;;2049594;28;20070;-76
2023/04/13 05:56:59;;;;;;;19.25;10.60;;;;;;;;;;2051560;28;20403;-77
2023/04/13 05:58:20;;;;;;;11.82;9.25;;;;;;;;;;2053559;28;20035;-76
2023/04/13 05:59:41;;;;;;;14.57;8.82;;;;;;;;;;2053251;28;20023;-77
2023/04/13 06:01:02;;;;;;;16.02;10.27;;;;;;;;;;2056583;28;20043;-76
2023/04/13 06:02:25;;;;;;;9.77;8.77;;;;;;;;;;2055577;28;20418;-77
2023/04/13 06:03:45;;;;;;;;;;;;;;;;;;2057520;28;20047;-75
2023/04/13 06:05:06;;;;;;;18.88;9.30;;;;;;;;;;2053263;28;19925;-76
2023/04/13 06:06:29;;;;;;;17.90;10.68;;;;;;;;;;2056854;28;20078;-76
2023/04/13 06:07:49;;;;;;;;;;;;;;;;;;2050090;28;20094;-76
2023/04/13 06:09:10;;;;;;;15.48;9.38;;;;;;;;;;2052675;28;20382;-76
2023/04/13 06:10:31;;;;;;;16.08;8.60;;;;;;;;;;2050867;28;20035;-76
2023/04/13 06:11:53;;;;;;;15.93;9.65;;;;;;;;;;2053028;28;20030;-76
2023/04/13 06:13:14;;;;;;;14.50;9.13;;;;;;;;;;2054141;28;20031;-76
2023/04/13 06:14:35;;;;;;;24.60;10.88;;;;;;;;;;2049382;28;20034;-76
2023/04/13 06:15:59;;;;;;;14.55;8.30;;;;;;;;;;2050484;28;20035;-76
2023/04/13 06:17:20;;;;;;;17.45;9.82;;;;;;;;;;2045707;28;20558;-77
2023/04/13 06:18:41;;;;;;;13.90;9.35;;;;;;;;;;2055394;28;20098;-76
2023/04/13 06:20:05;;;;;;;16.25;8.98;;;;;;;;;;2053056;28;20405;-76
2023/04/13 06:21:28;;;;;;;15.75;8.18;;;;;;;;;;2055927;28;20039;-76
2023/04/13 06:22:49;;;;;;;15.30;8.07;;;;;;;;;;2052407;28;20038;-76
2023/04/13 06:24:10;;;;;;;9.95;7.82;;;;;;;;;;2052533;28;20027;-77
2023/04/13 06:25:31;;;;;;;14.50;8.50;;;;;;;;;;2051382;28;20038;-77
2023/04/13 06:26:52;;;;;;;23.15;8.80;;;;;;;;;;2055726;28;20030;-77
2023/04/13 06:28:13;;;;;;;10.15;7.88;;;;;;;;;;2051068;28;20642;-76
2023/04/13 06:29:37;;;;;;;10.93;8.02;;;;;;;;;;2052737;28;20031;-77
2023/04/13 06:30:58;;;;;;;12.98;8.88;;;;;;;;;;2052577;28;20094;-77
2023/04/13 06:32:19;;;;;;;14.63;8.18;;;;;;;;;;2053157;28;20545;-77
2023/04/13 06:33:40;;;;;;;16.15;8.68;;;;;;;;;;2052720;28;20030;-76
2023/04/13 06:35:03;;;;;;;15.70;8.90;;;;;;;;;;2046034;28;20031;-76
2023/04/13 06:36:24;;;;;;;13.52;8.20;;;;;;;;;;2051343;28;20023;-76
2023/04/13 06:37:46;;;;;;;10.45;8.15;;;;;;;;;;2053351;28;20034;-77
2023/04/13 06:39:10;;;;;;;11.65;8.43;;;;;;;;;;2047999;29;20107;-77
2023/04/13 06:40:32;;;;;;;13.48;8.88;;;;;;;;;;2048763;28;20015;-77
2023/04/13 06:42:08;;;;;;;12.75;8.70;;;;;;;;;;2052185;28;20030;-77
2023/04/13 06:43:43;;;;;;;14.63;9.35;;;;;;;;;;2055079;28;20493;-77
2023/04/13 06:49:17;;;;;;;54.47;17.02;;;;;;;;;;2048582;28;20394;-79
2023/04/13 06:51:02;;;;;;;18.13;9.40;;;;;;;;;;2052914;28;20057;-78
2023/04/13 06:52:23;;;;;;;12.88;8.57;;;;;;;;;;2055828;28;20027;-78
2023/04/13 06:53:47;;;;;;;12.63;9.70;;;;;;;;;;2056142;28;20027;-76
2023/04/13 07:10:41;;;;;;;27.20;9.90;;;;;;;;;;2013912;29;20105;-76
2023/04/13 07:12:03;;;;;;;17.77;9.32;;;;;;;;;;2017359;29;20045;-75
2023/04/13 07:13:25;;;;;;;12.27;9.50;;;;;;;;;;2033047;29;20522;-76
2023/04/13 07:14:45;;;;;;;12.25;8.18;;;;;;;;;;2030279;29;20051;-76
2023/04/13 07:16:07;;;;;;;19.85;8.93;;;;;;;;;;2041039;28;20530;-75
2023/04/13 07:17:28;;;;;;;14.35;8.15;;;;;;;;;;2052686;28;20035;-76
2023/04/13 07:18:49;;;;;;;9.93;8.30;;;;;;;;;;2052214;28;20019;-75
2023/04/13 07:20:49;;;;;;;14.88;8.45;;;;;;;;;;2053305;28;20030;-76
2023/04/13 07:22:18;;;;;;;12.30;7.88;;;;;;;;;;2059575;28;20046;-76
2023/04/13 07:23:41;;;;;;;15.07;8.55;;;;;;;;;;2056664;28;20039;-75
2023/04/13 07:27:33;;;;;;;14.60;8.55;;;;;;;;;;2055497;28;20031;-77
2023/04/13 07:28:54;;;;;;;15.52;8.43;;;;;;;;;;2057510;28;20038;-78
2023/04/13 07:30:18;;;;;;;17.67;8.52;;;;;;;;;;2055286;28;20035;-77
2023/04/13 07:33:35;;;;;;;16.15;8.45;;;;;;;;;;2051849;28;20509;-78
2023/04/13 07:35:00;;;;;;;12.68;7.60;;;;;;;;;;2055358;28;20034;-77
2023/04/13 07:36:32;;;;;;;12.60;8.73;;;;;;;;;;2062972;28;20030;-79
2023/04/13 07:42:27;;;;;;;14.57;7.43;;;;;;;;;;2046689;29;20055;-78
2023/04/13 07:46:19;;;;;;;22.75;8.30;;;;;;;;;;2036354;29;20036;-81
2023/04/13 07:47:40;;;;;;;;;;;;;;;;;;2026673;29;20025;-75
2023/04/13 07:49:32;;;;;;;14.60;7.35;;;;;;;;;;2016259;29;19922;-79
2023/04/13 07:50:56;;;;;;;24.17;8.48;;;;;;;;;;2032356;29;20069;-81
2023/04/13 07:52:22;;;;;;;11.77;7.78;;;;;;;;;;2028683;29;20025;-82
2023/04/13 07:53:58;;;;;;;21.88;10.07;;;;;;;;;;2045393;29;20028;-77
2023/04/13 07:55:24;;;;;;;49.88;16.10;;;;;;;;;;2049348;28;20027;-77
2023/04/13 07:59:15;;;;;;;18.20;9.10;;;;;;;;;;2040716;29;20180;-78
2023/04/13 08:01:20;;;;;;;22.52;8.80;;;;;;;;;;2028039;29;20435;-78
2023/04/13 08:05:01;;;;;;;15.20;8.02;;;;;;;;;;2021575;29;20117;-82
2023/04/13 08:14:41;;;;;;;19.30;7.82;;;;;;;;;;2029679;29;20048;-81
2023/04/13 08:16:02;;;;;;;17.27;7.45;;;;;;;;;;2025061;29;20048;-79
2023/04/13 08:17:23;;;;;;;17.63;7.35;;;;;;;;;;2036536;29;20039;-79
2023/04/13 08:18:44;;;;;;;16.13;7.63;;;;;;;;;;2039922;29;20020;-78
2023/04/13 08:20:07;;;;;;;12.82;7.28;;;;;;;;;;2041631;29;20031;-78
2023/04/13 08:21:32;;;;;;;10.10;6.32;;;;;;;;;;2044171;29;20034;-78
2023/04/13 08:22:52;;;;;;;15.52;7.03;;;;;;;;;;2033621;29;20044;-78
2023/04/13 08:24:16;;;;;;;13.35;7.18;;;;;;;;;;2038605;29;20024;-79
2023/04/13 08:25:43;;;;;;;18.67;8.63;;;;;;;;;;2039305;28;20365;-79
2023/04/13 08:27:06;;;;;;;11.27;7.00;;;;;;;;;;2033895;29;20043;-79
2023/04/13 08:28:27;;;;;;;12.52;6.43;;;;;;;;;;2025828;29;20033;-79
2023/04/13 08:29:54;;;;;;;16.38;7.05;;;;;;;;;;2031037;29;20039;-80
2023/04/13 08:33:13;;;;;;;12.65;6.57;;;;;;;;;;2048603;29;20019;-79
2023/04/13 08:34:34;;;;;;;10.93;6.40;;;;;;;;;;2050204;29;20514;-79
2023/04/13 08:35:55;;;;;;;15.63;7.43;;;;;;;;;;2036684;28;20062;-79
2023/04/13 08:37:16;;;;;;;13.95;6.57;;;;;;;;;;2052178;28;20386;-80
2023/04/13 08:38:37;;;;;;;11.73;6.35;;;;;;;;;;2049803;29;20035;-76
2023/04/13 08:39:59;;;;;;;17.60;6.90;;;;;;;;;;2050239;28;20031;-77
2023/04/13 08:41:20;;;;;;;;;;;;;;;;;;2048122;28;20023;-76
2023/04/13 08:42:54;;;;;;;13.70;6.85;;;;;;;;;;2047706;29;19906;-79
2023/04/13 08:44:16;;;;;;;10.63;6.55;;;;;;;;;;2049005;28;20035;-79
2023/04/13 08:45:42;;;;;;;27.10;10.20;;;;;;;;;;2039549;28;20020;-79
2023/04/13 08:47:03;;;;;;;20.25;7.65;;;;;;;;;;2048706;28;20038;-79
2023/04/13 08:48:27;;;;;;;10.20;6.32;;;;;;;;;;2047695;28;20026;-78
2023/04/13 08:49:49;;;;;;;13.75;6.40;;;;;;;;;;2041746;29;20036;-78
2023/04/13 08:51:14;;;;;;;18.98;6.93;;;;;;;;;;2049191;28;20494;-79
2023/04/13 08:52:35;;;;;;;21.40;7.45;;;;;;;;;;2048162;28;20506;-81
2023/04/13 08:54:26;;;;;;;17.33;7.07;;;;;;;;;;2045919;29;20031;-80
2023/04/13 08:55:43;;;;;;;16.87;7.33;;;;;;;;;;2050115;28;20031;-79
2023/04/13 08:57:04;;;;;;;12.25;6.60;;;;;;;;;;2047996;28;20433;-79
2023/04/13 08:58:26;;;;;;;17.33;6.57;;;;;;;;;;2048654;29;20404;-78
2023/04/13 09:00:06;;;;;;;15.88;7.22;;;;;;;;;;2049208;29;20031;-81
2023/04/13 09:08:11;;;;;;;;;;;;;;;;;;;;;
2023/04/13 09:09:35;;;;;;;20.27;7.13;;;;;;;;;;2043177;28;20031;-78
2023/04/13 09:11:11;;;;;;;20.05;7.18;;;;;;;;;;2046553;29;20057;-81
2023/04/13 09:12:35;;;;;;;11.98;5.63;;;;;;;;;;2049740;28;20023;-80
2023/04/13 09:13:56;;;;;;;14.93;6.18;;;;;;;;;;2039925;29;20260;-80
2023/04/13 09:15:21;;;;;;;15.38;6.05;;;;;;;;;;2052639;28;20081;-79
2023/04/13 09:16:42;;;;;;;21.15;7.25;;;;;;;;;;2060833;28;20046;-80
2023/04/13 09:18:28;;;;;;;20.25;6.63;;;;;;;;;;2055122;28;20034;-75